Time;durP1;ratioP1;P1;durP2;ratioP2;P2;SDS_P1;SDS_P2;PMS_P1;PMS_P2;Temp;Humidity;BMP_temperature;BMP_pressure;BME280_temperature;BME280_humidity;BME280_pressure;Samples;Min_cycle;Max_cycle;Signal;HPM_P1;HPM_P2
2023/09/04 00:02:00;;;;;;;4.30;3.60;;;19.60;58.50;;;;;;4985635;28;20487;-56
2023/09/04 00:04:28;;;;;;;6.78;3.72;;;19.60;58.60;;;;;;4984780;28;20090;-53
2023/09/04 00:06:55;;;;;;;4.28;3.67;;;19.60;58.60;;;;;;4984905;28;20054;-55
2023/09/04 00:09:23;;;;;;;3.92;3.40;;;19.50;58.50;;;;;;4984531;28;20057;-54
2023/09/04 00:11:50;;;;;;;7.03;3.67;;;19.50;58.50;;;;;;4984986;28;21463;-55
2023/09/04 00:14:17;;;;;;;6.82;3.75;;;19.50;58.50;;;;;;4984663;28;20069;-56
2023/09/04 00:16:45;;;;;;;4.88;4.05;;;19.50;58.50;;;;;;4983938;28;20049;-55
2023/09/04 00:19:13;;;;;;;4.70;3.50;;;19.50;58.60;;;;;;4985398;28;20411;-55
2023/09/04 00:21:40;;;;;;;4.03;3.60;;;19.50;58.60;;;;;;4983482;28;20054;-54
2023/09/04 00:24:07;;;;;;;4.78;3.55;;;19.40;58.60;;;;;;4984503;28;20058;-56
2023/09/04 00:26:34;;;;;;;4.97;3.72;;;19.40;58.60;;;;;;4984884;28;20054;-55
2023/09/04 00:29:01;;;;;;;4.43;3.60;;;19.40;58.70;;;;;;4984283;28;20414;-54
2023/09/04 00:31:28;;;;;;;4.65;3.25;;;19.40;58.70;;;;;;4985429;28;20050;-56
2023/09/04 00:33:57;;;;;;;4.38;3.72;;;19.40;58.80;;;;;;4983351;28;20069;-55
2023/09/04 00:36:24;;;;;;;4.75;3.35;;;19.40;58.80;;;;;;4983707;28;20073;-55
2023/09/04 00:38:51;;;;;;;6.80;3.63;;;19.40;58.80;;;;;;4984154;28;20058;-56
2023/09/04 00:41:19;;;;;;;3.92;3.42;;;19.30;58.80;;;;;;4984058;28;20062;-55
2023/09/04 00:43:46;;;;;;;4.72;3.35;;;19.30;58.80;;;;;;4984109;28;20054;-54
2023/09/04 00:46:14;;;;;;;6.10;3.70;;;19.30;58.80;;;;;;4984963;28;20058;-54
2023/09/04 00:48:41;;;;;;;4.93;4.00;;;19.30;58.90;;;;;;4984157;28;20057;-51
2023/09/04 00:51:10;;;;;;;4.82;3.38;;;19.30;58.90;;;;;;4982421;28;20062;-55
2023/09/04 00:53:38;;;;;;;5.28;3.63;;;19.20;58.90;;;;;;4983633;28;21074;-56
2023/09/04 00:56:07;;;;;;;5.35;3.60;;;19.20;58.90;;;;;;4983366;28;20050;-56
2023/09/04 00:58:35;;;;;;;5.75;3.40;;;19.20;58.90;;;;;;4984582;28;20054;-55
2023/09/04 01:01:03;;;;;;;3.88;3.17;;;19.20;58.90;;;;;;4983919;28;20419;-55
2023/09/04 01:03:31;;;;;;;8.85;4.00;;;19.20;58.90;;;;;;4982923;28;20391;-55
2023/09/04 01:05:58;;;;;;;7.70;3.45;;;19.20;58.90;;;;;;4982142;28;20059;-54
2023/09/04 01:08:27;;;;;;;4.60;3.63;;;19.10;58.90;;;;;;4982108;28;20050;-55
2023/09/04 01:11:02;;;;;;;4.35;3.22;;;19.10;58.90;;;;;;4982619;28;20436;-56
2023/09/04 01:13:37;;;;;;;3.85;3.03;;;19.10;59.00;;;;;;4983799;28;20529;-55
2023/09/04 01:16:07;;;;;;;4.13;3.22;;;19.10;59.00;;;;;;4982414;28;20407;-55
2023/09/04 01:18:36;;;;;;;4.75;3.33;;;19.10;59.00;;;;;;4983480;28;20065;-55
2023/09/04 01:21:05;;;;;;;4.65;3.78;;;19.10;59.00;;;;;;4981320;28;20395;-55
2023/09/04 01:23:33;;;;;;;4.60;3.50;;;19.00;58.90;;;;;;4983034;28;20057;-56
2023/09/04 01:26:09;;;;;;;6.78;3.78;;;19.00;58.80;;;;;;4982650;28;20054;-55
2023/09/04 01:28:43;;;;;;;5.78;3.38;;;19.00;58.80;;;;;;4982911;28;20058;-56
2023/09/04 01:31:18;;;;;;;4.13;3.55;;;19.00;58.80;;;;;;4982798;28;20050;-56
2023/09/04 01:33:50;;;;;;;4.57;3.90;;;18.90;58.80;;;;;;4982422;28;20054;-55
2023/09/04 01:36:21;;;;;;;5.28;3.17;;;18.90;58.70;;;;;;4981635;28;20050;-55
2023/09/04 01:38:48;;;;;;;4.57;3.33;;;18.90;58.70;;;;;;4982014;28;20065;-55
2023/09/04 01:41:16;;;;;;;4.97;3.35;;;18.90;58.80;;;;;;4980863;28;20064;-56
2023/09/04 01:43:43;;;;;;;7.63;3.38;;;18.80;58.80;;;;;;4983577;28;20058;-56
2023/09/04 01:46:11;;;;;;;4.10;3.60;;;18.80;58.90;;;;;;4981916;28;20061;-54
2023/09/04 01:48:38;;;;;;;6.00;3.50;;;18.80;58.90;;;;;;4982751;28;20400;-55
2023/09/04 01:51:05;;;;;;;4.40;3.10;;;18.80;58.90;;;;;;4981075;28;20061;-55
2023/09/04 01:53:34;;;;;;;3.97;3.25;;;18.80;59.00;;;;;;4983227;28;20054;-55
2023/09/04 01:56:01;;;;;;;6.32;4.00;;;18.80;59.00;;;;;;4982191;28;20061;-56
2023/09/04 01:58:29;;;;;;;4.03;3.20;;;18.70;59.00;;;;;;4983277;28;20062;-55
2023/09/04 02:00:56;;;;;;;4.70;3.60;;;18.70;59.00;;;;;;4982714;28;20509;-56
2023/09/04 02:03:23;;;;;;;3.88;3.22;;;18.70;59.10;;;;;;4982773;28;20533;-55
2023/09/04 02:05:50;;;;;;;3.78;3.35;;;18.70;59.10;;;;;;4981405;28;20065;-56
2023/09/04 02:08:19;;;;;;;5.63;3.50;;;18.70;59.10;;;;;;4982775;28;20061;-55
2023/09/04 02:10:50;;;;;;;4.10;2.95;;;18.60;59.10;;;;;;4982992;28;20063;-55
2023/09/04 02:13:17;;;;;;;4.85;3.53;;;18.70;59.20;;;;;;4983077;28;20057;-56
2023/09/04 02:15:44;;;;;;;4.82;3.70;;;18.70;59.20;;;;;;4981085;28;20054;-55
2023/09/04 02:18:12;;;;;;;5.50;3.53;;;18.70;59.20;;;;;;4982451;28;20069;-51
2023/09/04 02:20:39;;;;;;;4.50;3.20;;;18.60;59.10;;;;;;4979908;28;20062;-46
2023/09/04 02:23:06;;;;;;;7.10;3.80;;;18.60;59.10;;;;;;4982659;28;20498;-51
2023/09/04 02:25:33;;;;;;;4.70;3.17;;;18.60;59.10;;;;;;4982887;28;20065;-47
2023/09/04 02:28:02;;;;;;;3.92;3.13;;;18.60;59.10;;;;;;4982638;28;20065;-47
2023/09/04 02:30:29;;;;;;;5.60;2.88;;;18.50;59.10;;;;;;4981607;28;20065;-48
2023/09/04 02:32:58;;;;;;;3.95;3.25;;;18.50;59.00;;;;;;4981804;28;20046;-45
2023/09/04 02:35:26;;;;;;;4.55;3.22;;;18.50;59.00;;;;;;4981167;28;20054;-46
2023/09/04 02:37:53;;;;;;;5.38;3.50;;;18.50;59.10;;;;;;4983052;28;20061;-52
2023/09/04 02:40:20;;;;;;;9.20;3.45;;;18.40;59.00;;;;;;4982517;28;20058;-47
2023/09/04 02:42:48;;;;;;;4.50;3.28;;;18.50;59.00;;;;;;4981968;28;20518;-54
2023/09/04 02:45:16;;;;;;;4.60;3.25;;;18.40;59.00;;;;;;4981183;28;20050;-54
2023/09/04 02:47:44;;;;;;;3.65;3.03;;;18.40;59.00;;;;;;4981699;28;20074;-48
2023/09/04 02:50:11;;;;;;;4.65;3.20;;;18.40;58.90;;;;;;4979709;28;20062;-47
2023/09/04 02:52:38;;;;;;;5.78;3.60;;;18.40;58.90;;;;;;4982613;28;20352;-52
2023/09/04 02:55:06;;;;;;;5.15;3.50;;;18.30;58.90;;;;;;4981645;28;20054;-51
2023/09/04 02:57:34;;;;;;;4.45;3.03;;;18.30;58.90;;;;;;4979495;28;20058;-54
2023/09/04 03:00:03;;;;;;;6.93;3.50;;;18.30;58.90;;;;;;4981490;28;20050;-51
2023/09/04 03:02:32;;;;;;;3.72;3.13;;;18.30;58.90;;;;;;4982161;28;20050;-46
2023/09/04 03:04:59;;;;;;;3.58;3.00;;;18.30;58.90;;;;;;4981341;28;20062;-45
2023/09/04 03:07:27;;;;;;;4.00;2.90;;;18.20;58.90;;;;;;4984691;28;20061;-48
2023/09/04 03:09:56;;;;;;;4.60;3.33;;;18.20;58.90;;;;;;4985094;28;20058;-47
2023/09/04 03:12:24;;;;;;;4.85;3.53;;;18.20;58.90;;;;;;4985925;28;20050;-47
2023/09/04 03:14:57;;;;;;;4.90;3.22;;;18.20;58.90;;;;;;4985413;28;21819;-45
2023/09/04 03:17:24;;;;;;;4.90;3.10;;;18.20;58.90;;;;;;4985305;28;20529;-55
2023/09/04 03:19:54;;;;;;;3.00;2.70;;;18.10;58.80;;;;;;4985212;28;20062;-55
2023/09/04 03:22:22;;;;;;;4.10;3.40;;;18.10;58.80;;;;;;4985802;28;20054;-56
2023/09/04 03:24:49;;;;;;;5.13;3.15;;;18.10;58.90;;;;;;4984686;28;20061;-55
2023/09/04 03:27:17;;;;;;;8.77;3.13;;;18.10;58.80;;;;;;4986081;28;20061;-55
2023/09/04 03:29:44;;;;;;;5.80;3.30;;;18.00;58.80;;;;;;4984875;28;20069;-55
2023/09/04 03:32:12;;;;;;;4.18;3.03;;;18.00;58.80;;;;;;4985147;28;20422;-55
2023/09/04 03:34:39;;;;;;;4.68;3.17;;;18.00;58.80;;;;;;4985519;28;20058;-53
2023/09/04 03:37:08;;;;;;;4.82;3.40;;;18.00;58.80;;;;;;4985156;28;20054;-55
2023/09/04 03:39:36;;;;;;;5.00;3.15;;;17.90;58.70;;;;;;4985542;28;20061;-56
2023/09/04 03:42:04;;;;;;;4.15;3.35;;;17.90;58.80;;;;;;4985188;28;20051;-56
2023/09/04 03:44:31;;;;;;;3.70;2.60;;;17.90;58.80;;;;;;4986227;28;20058;-56
2023/09/04 03:46:59;;;;;;;3.72;2.95;;;17.90;58.80;;;;;;4985916;28;20054;-56
2023/09/04 03:49:26;;;;;;;3.22;2.90;;;17.80;59.20;;;;;;4985097;28;20062;-55
2023/09/04 03:51:53;;;;;;;4.85;3.25;;;17.80;58.80;;;;;;4984236;28;20046;-56
2023/09/04 03:54:22;;;;;;;4.38;3.08;;;17.80;58.80;;;;;;4985568;28;20627;-56
2023/09/04 03:56:50;;;;;;;5.07;3.13;;;17.80;58.80;;;;;;4984117;28;20062;-56
2023/09/04 03:59:17;;;;;;;3.63;3.25;;;17.80;58.80;;;;;;4985362;28;20057;-56
2023/09/04 04:01:44;;;;;;;3.78;2.80;;;17.70;58.80;;;;;;4985643;28;20065;-56
2023/09/04 04:04:11;;;;;;;3.67;2.70;;;17.70;58.80;;;;;;4985198;28;20065;-56
2023/09/04 04:06:39;;;;;;;3.58;2.97;;;17.70;58.80;;;;;;4983670;28;20053;-56
2023/09/04 04:09:07;;;;;;;3.40;3.03;;;17.70;58.80;;;;;;4984552;28;20061;-56
2023/09/04 04:11:36;;;;;;;4.20;2.78;;;17.60;58.80;;;;;;4984738;28;20069;-55
2023/09/04 04:14:04;;;;;;;5.43;3.08;;;17.60;58.90;;;;;;4985521;28;20054;-55
2023/09/04 04:16:36;;;;;;;3.53;2.92;;;17.60;58.90;;;;;;4983890;28;20676;-56
2023/09/04 04:19:04;;;;;;;3.10;2.60;;;17.60;58.90;;;;;;4983630;28;20054;-56
2023/09/04 04:21:31;;;;;;;3.88;2.60;;;17.60;58.90;;;;;;4983447;28;20065;-56
2023/09/04 04:23:59;;;;;;;3.30;2.53;;;17.60;58.90;;;;;;4983126;28;20058;-56
2023/09/04 04:26:26;;;;;;;3.95;2.75;;;17.60;58.90;;;;;;4984427;28;20058;-56
2023/09/04 04:28:54;;;;;;;4.28;2.97;;;17.60;58.90;;;;;;4985197;28;20058;-55
2023/09/04 04:31:22;;;;;;;3.17;2.70;;;17.60;58.90;;;;;;4983181;28;20431;-56
2023/09/04 04:33:50;;;;;;;4.32;2.75;;;17.50;58.80;;;;;;4984788;28;20058;-56
2023/09/04 04:36:17;;;;;;;4.30;2.60;;;17.50;58.90;;;;;;4983054;28;20058;-56
2023/09/04 04:38:44;;;;;;;4.60;2.42;;;17.50;58.90;;;;;;4984256;28;20509;-56
2023/09/04 04:41:11;;;;;;;3.35;2.65;;;17.50;58.90;;;;;;4984796;28;20058;-56
2023/09/04 04:43:39;;;;;;;8.50;2.70;;;17.50;58.90;;;;;;4984050;28;20058;-56
2023/09/04 04:46:09;;;;;;;3.20;2.35;;;17.40;58.90;;;;;;4984194;28;20069;-55
2023/09/04 04:48:36;;;;;;;3.33;2.67;;;17.40;58.90;;;;;;4983790;28;20069;-55
2023/09/04 04:51:03;;;;;;;4.30;3.10;;;17.40;58.90;;;;;;4983436;28;20422;-56
2023/09/04 04:53:30;;;;;;;5.45;3.00;;;17.40;58.80;;;;;;4984376;28;20517;-56
2023/09/04 04:55:58;;;;;;;3.30;2.67;;;17.40;58.90;;;;;;4984731;28;20058;-53
2023/09/04 04:58:25;;;;;;;3.03;2.55;;;17.40;58.90;;;;;;4984044;28;20065;-54
2023/09/04 05:00:53;;;;;;;2.70;2.35;;;17.30;58.80;;;;;;4983600;28;20054;-55
2023/09/04 05:03:21;;;;;;;3.03;2.40;;;17.30;58.80;;;;;;4983886;28;20058;-56
2023/09/04 05:05:48;;;;;;;5.07;2.80;;;17.30;58.80;;;;;;4981231;28;20640;-55
2023/09/04 05:08:16;;;;;;;3.05;2.72;;;17.30;58.80;;;;;;4984310;28;20069;-56
2023/09/04 05:10:43;;;;;;;3.30;2.38;;;17.30;58.80;;;;;;4983783;28;20416;-56
2023/09/04 05:13:10;;;;;;;3.22;2.40;;;17.30;58.90;;;;;;4983757;28;20054;-56
2023/09/04 05:15:37;;;;;;;3.50;2.60;;;17.20;58.90;;;;;;4983228;28;20061;-56
2023/09/04 05:18:05;;;;;;;3.17;2.40;;;17.20;59.00;;;;;;4983856;28;20073;-56
2023/09/04 05:20:37;;;;;;;3.13;2.70;;;17.20;59.00;;;;;;4980943;28;20055;-54
2023/09/04 05:23:04;;;;;;;5.70;2.70;;;17.20;59.10;;;;;;4983726;28;20693;-56
2023/09/04 05:25:32;;;;;;;3.97;2.42;;;17.20;59.10;;;;;;4983221;28;20054;-56
2023/09/04 05:27:59;;;;;;;4.20;2.55;;;17.20;59.10;;;;;;4983073;28;20058;-56
2023/09/04 05:30:26;;;;;;;5.80;2.85;;;17.20;59.20;;;;;;4980887;28;20541;-56
2023/09/04 05:32:54;;;;;;;4.35;2.70;;;17.20;59.30;;;;;;4982870;28;20054;-56
2023/09/04 05:35:22;;;;;;;6.35;2.83;;;17.20;59.40;;;;;;4981785;28;20058;-56
2023/09/04 05:37:50;;;;;;;5.00;3.10;;;17.20;59.40;;;;;;4982422;28;20054;-55
2023/09/04 05:40:17;;;;;;;3.40;2.40;;;17.20;59.50;;;;;;4982017;28;20074;-56
2023/09/04 05:42:45;;;;;;;4.30;2.80;;;17.20;59.50;;;;;;4982715;28;20418;-53
2023/09/04 05:45:12;;;;;;;3.08;2.45;;;17.20;59.60;;;;;;4981658;28;20058;-55
2023/09/04 05:47:39;;;;;;;4.38;3.28;;;17.20;59.70;;;;;;4982800;28;20085;-55
2023/09/04 05:50:08;;;;;;;3.63;2.20;;;17.20;59.70;;;;;;4982039;28;20058;-54
2023/09/04 05:52:35;;;;;;;3.47;2.58;;;17.20;59.80;;;;;;4982367;28;20426;-56
2023/09/04 05:55:04;;;;;;;3.53;2.70;;;17.20;59.80;;;;;;4982465;28;20059;-54
2023/09/04 05:57:32;;;;;;;4.47;2.65;;;17.20;60.00;;;;;;4982033;28;20042;-56
2023/09/04 05:59:59;;;;;;;4.07;2.47;;;17.30;60.10;;;;;;4982260;28;20079;-55
2023/09/04 06:02:26;;;;;;;4.90;2.22;;;17.30;60.20;;;;;;4983110;28;20050;-56
2023/09/04 06:04:54;;;;;;;5.07;3.00;;;17.30;61.10;;;;;;4980677;28;20483;-56
2023/09/04 06:07:21;;;;;;;3.80;2.65;;;17.30;60.50;;;;;;4981916;28;20065;-55
2023/09/04 06:09:48;;;;;;;3.85;2.80;;;17.40;60.60;;;;;;4982735;28;21519;-55
2023/09/04 06:12:17;;;;;;;4.78;2.55;;;17.30;60.60;;;;;;4982527;28;20065;-54
2023/09/04 06:14:44;;;;;;;3.90;2.90;;;17.40;60.90;;;;;;4980720;28;20054;-56
2023/09/04 06:17:11;;;;;;;3.95;2.42;;;17.40;60.90;;;;;;4982128;28;20054;-55
2023/09/04 06:19:38;;;;;;;4.82;2.42;;;17.40;61.00;;;;;;4980387;28;20046;-54
2023/09/04 06:22:06;;;;;;;4.25;2.95;;;17.50;61.20;;;;;;4981330;28;20054;-52
2023/09/04 06:24:33;;;;;;;4.68;2.85;;;17.50;61.30;;;;;;4982340;28;20050;-55
2023/09/04 06:27:00;;;;;;;3.42;2.53;;;17.60;61.40;;;;;;4981589;28;20063;-56
2023/09/04 06:29:30;;;;;;;3.05;2.30;;;17.60;61.50;;;;;;4982004;28;20491;-54
2023/09/04 06:31:57;;;;;;;6.18;2.70;;;17.60;61.60;;;;;;4981315;28;20057;-54
2023/09/04 06:34:24;;;;;;;2.92;2.60;;;17.70;61.70;;;;;;4981422;28;20046;-55
2023/09/04 06:36:51;;;;;;;3.40;2.60;;;17.70;61.70;;;;;;4980067;28;20054;-55
2023/09/04 06:39:18;;;;;;;4.80;2.53;;;17.70;61.70;;;;;;4981404;28;20050;-55
2023/09/04 06:41:46;;;;;;;4.05;2.70;;;17.80;61.90;;;;;;4981031;28;20081;-55
2023/09/04 06:44:13;;;;;;;2.72;2.40;;;17.80;62.00;;;;;;4982482;28;20054;-56
2023/09/04 06:46:42;;;;;;;4.40;2.40;;;17.80;62.10;;;;;;4980928;28;20414;-56
2023/09/04 06:49:09;;;;;;;3.45;2.17;;;17.90;62.10;;;;;;4981589;28;20058;-55
2023/09/04 06:51:36;;;;;;;3.65;2.40;;;17.90;62.20;;;;;;4979821;28;20415;-56
2023/09/04 06:54:04;;;;;;;4.03;2.80;;;18.00;62.30;;;;;;4982010;28;20059;-56
2023/09/04 06:56:31;;;;;;;3.45;2.42;;;18.00;62.40;;;;;;4982003;28;20058;-55
2023/09/04 06:58:59;;;;;;;4.70;2.78;;;18.10;62.50;;;;;;4981827;28;20054;-55
2023/09/04 07:01:26;;;;;;;4.13;2.65;;;18.10;62.60;;;;;;4978027;28;20056;-55
2023/09/04 07:03:54;;;;;;;3.38;2.45;;;18.20;62.80;;;;;;4980867;28;20046;-55
2023/09/04 07:06:22;;;;;;;3.13;2.70;;;18.20;62.80;;;;;;4979457;28;20058;-56
2023/09/04 07:08:50;;;;;;;3.50;2.60;;;18.30;62.80;;;;;;4981716;28;20062;-56
2023/09/04 07:11:17;;;;;;;2.90;2.50;;;18.30;63.10;;;;;;4981960;28;20057;-55
2023/09/04 07:13:44;;;;;;;5.03;2.28;;;18.40;63.00;;;;;;4980876;28;20502;-55
2023/09/04 07:16:12;;;;;;;2.60;2.13;;;18.40;63.00;;;;;;4981394;28;20627;-56
2023/09/04 07:18:39;;;;;;;3.65;2.40;;;18.50;63.10;;;;;;4981422;28;20486;-56
2023/09/04 07:21:08;;;;;;;6.88;2.42;;;18.60;63.10;;;;;;4979309;28;20077;-55
2023/09/04 07:23:35;;;;;;;4.68;2.60;;;18.60;63.00;;;;;;4982773;28;20478;-55
2023/09/04 07:26:02;;;;;;;4.82;2.30;;;18.60;62.90;;;;;;4981834;28;20062;-56
2023/09/04 07:28:29;;;;;;;3.83;2.60;;;18.70;62.90;;;;;;4981690;28;20395;-56
2023/09/04 07:31:13;;;;;;;3.92;2.00;;;18.80;62.90;;;;;;4981971;28;20065;-56
2023/09/04 07:33:40;;;;;;;4.17;2.73;;;18.90;63.00;;;;;;4981466;28;20057;-55
2023/09/04 07:36:09;;;;;;;3.13;2.10;;;18.90;62.90;;;;;;4980164;28;20057;-54
2023/09/04 07:38:36;;;;;;;2.95;2.30;;;19.00;62.80;;;;;;4982285;28;20077;-56
2023/09/04 07:41:04;;;;;;;3.67;2.60;;;19.00;62.60;;;;;;4982341;28;20062;-57
2023/09/04 07:43:32;;;;;;;4.22;2.80;;;19.10;62.50;;;;;;4981640;28;20054;-55
2023/09/04 07:46:00;;;;;;;5.80;2.97;;;19.20;62.30;;;;;;4981118;28;20066;-57
2023/09/04 07:48:27;;;;;;;3.33;2.42;;;19.20;62.00;;;;;;4980964;28;20065;-56
2023/09/04 07:50:56;;;;;;;4.75;2.78;;;19.20;61.90;;;;;;4981127;28;20061;-56
2023/09/04 07:53:25;;;;;;;3.65;2.47;;;19.30;61.80;;;;;;4983608;28;20061;-56
2023/09/04 07:55:52;;;;;;;5.05;2.60;;;19.30;61.60;;;;;;4983804;28;20065;-57
2023/09/04 07:58:20;;;;;;;4.03;2.47;;;19.40;61.70;;;;;;4985268;28;20066;-55
2023/09/04 08:00:48;;;;;;;2.97;2.15;;;19.40;61.50;;;;;;4983778;28;20057;-53
2023/09/04 08:03:15;;;;;;;3.22;2.30;;;19.50;61.30;;;;;;4984784;28;20058;-58
2023/09/04 08:05:44;;;;;;;3.38;2.47;;;19.50;61.20;;;;;;4984684;28;20074;-53
2023/09/04 08:08:12;;;;;;;5.00;3.05;;;19.60;61.00;;;;;;4985407;28;20414;-57
2023/09/04 08:10:43;;;;;;;3.83;2.75;;;19.60;60.70;;;;;;4984150;28;20066;-51
2023/09/04 08:13:11;;;;;;;3.58;2.55;;;19.70;60.40;;;;;;4983856;28;20058;-56
2023/09/04 08:15:38;;;;;;;4.07;2.65;;;19.70;60.40;;;;;;4984436;28;20050;-57
2023/09/04 08:18:06;;;;;;;5.40;3.20;;;19.70;60.20;;;;;;4984202;28;20065;-58
2023/09/04 08:20:34;;;;;;;5.07;2.80;;;19.80;60.20;;;;;;4983770;28;20490;-56
2023/09/04 08:23:01;;;;;;;4.85;2.92;;;19.80;60.70;;;;;;4985236;28;20057;-56
2023/09/04 08:25:29;;;;;;;4.60;2.60;;;19.90;59.90;;;;;;4984039;28;20046;-56
2023/09/04 08:27:58;;;;;;;3.78;2.72;;;19.90;59.70;;;;;;4985097;28;20499;-56
2023/09/04 08:30:25;;;;;;;3.03;2.67;;;20.00;59.70;;;;;;4983366;28;20058;-55
2023/09/04 08:32:52;;;;;;;3.00;2.55;;;20.00;59.60;;;;;;4984894;28;20065;-55
2023/09/04 08:35:19;;;;;;;3.95;2.83;;;20.10;59.50;;;;;;4982817;28;20054;-54
2023/09/04 08:37:47;;;;;;;6.38;2.60;;;20.10;59.60;;;;;;4984531;28;20418;-55
2023/09/04 08:40:15;;;;;;;4.82;2.80;;;20.10;59.60;;;;;;4984155;28;20050;-55
2023/09/04 08:42:45;;;;;;;3.95;3.00;;;20.20;59.80;;;;;;4983939;28;20046;-56
2023/09/04 08:45:16;;;;;;;3.72;2.58;;;20.30;59.80;;;;;;4983350;28;20047;-54
2023/09/04 08:47:44;;;;;;;3.45;2.70;;;20.30;59.60;;;;;;4984523;28;20069;-57
2023/09/04 08:50:11;;;;;;;5.47;3.15;;;20.30;59.50;;;;;;4982819;28;20426;-56
2023/09/04 08:52:40;;;;;;;5.38;3.08;;;20.40;59.40;;;;;;4984672;28;20054;-56
2023/09/04 08:55:08;;;;;;;6.60;3.08;;;20.40;59.30;;;;;;4984280;28;20054;-58
2023/09/04 08:57:35;;;;;;;6.75;2.75;;;20.40;59.30;;;;;;4984169;28;20406;-53
2023/09/04 09:00:03;;;;;;;3.17;2.70;;;20.50;59.40;;;;;;4984825;28;20062;-57
2023/09/04 09:02:32;;;;;;;4.13;2.90;;;20.60;59.30;;;;;;4983882;28;20406;-57
2023/09/04 09:05:00;;;;;;;5.32;2.92;;;20.60;59.30;;;;;;4982105;28;20054;-58
2023/09/04 09:07:28;;;;;;;4.07;2.60;;;20.60;59.20;;;;;;4983833;28;20046;-57
2023/09/04 09:10:00;;;;;;;4.38;2.53;;;20.70;59.10;;;;;;4983542;28;20065;-57
2023/09/04 09:12:27;;;;;;;4.65;2.97;;;20.70;59.10;;;;;;4983989;28;20534;-58
2023/09/04 09:14:54;;;;;;;5.18;2.90;;;20.80;59.20;;;;;;4984281;28;20057;-58
2023/09/04 09:17:22;;;;;;;4.65;2.80;;;20.80;59.10;;;;;;4983159;28;20053;-54
2023/09/04 09:19:50;;;;;;;4.85;2.97;;;20.90;59.10;;;;;;4981737;28;20062;-54
2023/09/04 09:22:18;;;;;;;4.25;2.90;;;20.90;59.60;;;;;;4983425;28;20085;-58
2023/09/04 09:24:51;;;;;;;3.92;2.20;;;21.00;59.20;;;;;;4983846;28;20039;-57
2023/09/04 09:27:19;;;;;;;3.72;2.63;;;21.00;59.20;;;;;;4983854;28;20062;-55
2023/09/04 09:29:47;;;;;;;9.55;2.92;;;21.10;59.20;;;;;;4983985;28;20495;-49
2023/09/04 09:32:17;;;;;;;6.07;2.80;;;21.10;58.90;;;;;;4983365;28;20076;-58
2023/09/04 09:34:50;;;;;;;3.83;2.80;;;21.10;58.90;;;;;;4981430;28;20058;-52
2023/09/04 09:37:18;;;;;;;4.53;3.10;;;21.20;58.60;;;;;;4983062;28;20054;-58
2023/09/04 09:39:45;;;;;;;3.58;2.70;;;21.30;58.60;;;;;;4982984;28;20491;-57
2023/09/04 09:42:13;;;;;;;6.63;2.95;;;21.30;58.50;;;;;;4984489;28;20053;-57
2023/09/04 09:44:40;;;;;;;2.70;2.20;;;21.40;58.40;;;;;;4983450;28;20502;-58
2023/09/04 09:47:08;;;;;;;3.25;2.40;;;21.40;58.50;;;;;;4982812;28;20065;-57
2023/09/04 09:49:36;;;;;;;5.75;2.90;;;21.40;58.50;;;;;;4982675;28;20515;-54
2023/09/04 09:52:07;;;;;;;5.28;2.55;;;21.50;58.40;;;;;;4982394;28;20073;-56
2023/09/04 09:54:36;;;;;;;2.90;2.25;;;21.50;58.20;;;;;;4982022;28;20073;-57
2023/09/04 09:57:03;;;;;;;2.50;2.25;;;21.60;58.00;;;;;;4984071;28;20069;-58
2023/09/04 09:59:31;;;;;;;5.03;2.65;;;21.60;57.80;;;;;;4982679;28;20050;-56
2023/09/04 10:01:59;;;;;;;3.33;2.30;;;21.70;57.80;;;;;;4982757;28;20054;-58
2023/09/04 10:04:26;;;;;;;2.70;2.40;;;21.80;57.60;;;;;;4981962;28;20077;-52
2023/09/04 10:06:57;;;;;;;3.50;2.60;;;21.80;57.20;;;;;;4981923;28;20054;-56
2023/09/04 10:09:27;;;;;;;2.92;2.22;;;21.80;57.00;;;;;;4982311;28;20073;-57
2023/09/04 10:12:01;;;;;;;3.35;2.60;;;21.90;57.00;;;;;;4982987;28;20085;-59
2023/09/04 10:14:33;;;;;;;3.42;2.47;;;21.90;56.50;;;;;;4981955;28;20050;-55
2023/09/04 10:17:03;;;;;;;2.95;2.63;;;22.00;56.60;;;;;;4982029;28;20518;-56
2023/09/04 10:19:34;;;;;;;3.08;2.30;;;22.00;56.50;;;;;;4982274;28;20069;-43
2023/09/04 10:22:04;;;;;;;2.78;2.10;;;22.00;56.40;;;;;;4981770;28;20490;-43
2023/09/04 10:24:39;;;;;;;5.78;2.42;;;22.10;56.20;;;;;;4982594;28;20058;-47
2023/09/04 10:27:09;;;;;;;3.58;2.35;;;22.10;56.20;;;;;;4983175;28;20058;-42
2023/09/04 10:29:46;;;;;;;3.65;2.45;;;22.20;56.20;;;;;;4980959;28;20597;-49
2023/09/04 10:32:14;;;;;;;5.93;2.92;;;22.20;55.60;;;;;;4981892;28;20541;-52
2023/09/04 10:34:42;;;;;;;4.47;2.72;;;22.20;55.80;;;;;;4981401;28;20054;-50
2023/09/04 10:37:11;;;;;;;3.05;2.35;;;22.30;55.60;;;;;;4981698;28;20054;-44
2023/09/04 10:39:40;;;;;;;4.15;2.55;;;22.30;55.50;;;;;;4982601;28;20502;-46
2023/09/04 10:42:10;;;;;;;3.75;2.40;;;22.40;55.50;;;;;;4982697;28;20058;-42
2023/09/04 10:44:47;;;;;;;5.82;2.40;;;22.40;55.60;;;;;;4981917;28;20057;-44
2023/09/04 10:47:15;;;;;;;4.68;2.40;;;22.40;55.20;;;;;;4982027;28;20066;-43
2023/09/04 10:49:42;;;;;;;3.35;2.38;;;22.50;55.60;;;;;;4980625;28;20484;-52
2023/09/04 10:52:10;;;;;;;4.35;2.35;;;22.50;55.70;;;;;;4981605;28;20585;-43
2023/09/04 10:54:39;;;;;;;4.38;2.50;;;22.60;55.80;;;;;;4981851;28;20058;-46
2023/09/04 10:57:11;;;;;;;2.80;1.92;;;22.60;55.60;;;;;;4983090;28;20055;-53
2023/09/04 11:00:00;;;;;;;2.75;2.20;;;22.70;55.20;;;;;;4981595;28;20073;-46
2023/09/04 11:02:30;;;;;;;7.18;2.28;;;22.80;54.50;;;;;;4980828;28;20061;-52
2023/09/04 11:04:58;;;;;;;3.22;2.10;;;22.80;54.80;;;;;;4981104;28;20069;-45
2023/09/04 11:07:31;;;;;;;3.40;2.50;;;22.90;54.60;;;;;;4981621;28;20434;-44
2023/09/04 11:10:38;;;;;;;3.72;2.28;;;22.90;54.40;;;;;;4979871;28;20050;-42
2023/09/04 11:13:05;;;;;;;2.58;1.95;;;23.00;54.20;;;;;;4981972;28;20050;-55
2023/09/04 11:15:35;;;;;;;9.50;2.30;;;23.10;54.10;;;;;;4982092;28;20053;-44
2023/09/04 11:18:02;;;;;;;3.28;2.03;;;23.10;53.40;;;;;;4982538;28;20055;-48
2023/09/04 11:20:45;;;;;;;3.95;1.95;;;23.10;52.60;;;;;;4978904;28;20063;-43
2023/09/04 11:23:13;;;;;;;3.08;1.80;;;23.20;52.00;;;;;;4982096;28;20069;-42
2023/09/04 11:25:46;;;;;;;4.10;1.98;;;23.20;51.90;;;;;;4981626;28;20061;-45
2023/09/04 11:28:13;;;;;;;4.07;2.00;;;23.20;51.80;;;;;;4982885;28;20514;-43
2023/09/04 11:30:41;;;;;;;2.90;1.90;;;23.30;52.00;;;;;;4984707;28;20061;-42
2023/09/04 11:33:12;;;;;;;2.55;2.08;;;23.30;51.60;;;;;;4986852;28;20545;-45
2023/09/04 11:35:39;;;;;;;3.88;1.80;;;23.30;51.70;;;;;;4984272;28;20054;-49
2023/09/04 11:38:25;;;;;;;5.22;1.88;;;23.40;52.00;;;;;;4985690;28;20066;-47
2023/09/04 11:40:54;;;;;;;3.50;1.73;;;23.40;51.80;;;;;;4985644;28;20061;-43
2023/09/04 11:43:22;;;;;;;3.22;2.05;;;23.50;51.80;;;;;;4985500;28;20054;-42
2023/09/04 11:45:55;;;;;;;2.65;2.10;;;23.50;51.80;;;;;;4985704;28;20077;-45
2023/09/04 11:48:22;;;;;;;5.45;1.85;;;23.60;52.00;;;;;;4985449;28;20065;-48
2023/09/04 11:50:50;;;;;;;3.17;1.92;;;23.60;51.80;;;;;;4984515;28;20069;-43
2023/09/04 11:53:18;;;;;;;3.55;1.85;;;23.70;51.60;;;;;;4984518;28;20072;-42
2023/09/04 11:55:47;;;;;;;2.10;1.80;;;23.70;51.60;;;;;;4984634;28;20065;-43
2023/09/04 12:01:38;;;;;;;3.08;1.85;;;23.80;51.60;;;;;;4984328;28;20406;-42
2023/09/04 12:04:05;;;;;;;2.70;2.20;;;23.80;51.50;;;;;;4984702;28;20062;-54
2023/09/04 12:06:36;;;;;;;2.28;1.80;;;23.90;51.40;;;;;;4985061;28;20047;-47
2023/09/04 12:09:05;;;;;;;2.85;1.70;;;23.90;51.10;;;;;;4985759;28;20062;-47
2023/09/04 12:11:32;;;;;;;3.15;1.98;;;24.00;50.90;;;;;;4985185;28;20069;-46
2023/09/04 12:14:07;;;;;;;3.88;1.88;;;24.00;50.60;;;;;;4984643;28;20050;-51
2023/09/04 12:16:34;;;;;;;2.33;1.70;;;24.10;50.50;;;;;;4985192;28;20046;-41
2023/09/04 12:19:05;;;;;;;2.72;1.80;;;24.10;50.20;;;;;;4984293;28;20062;-42
2023/09/04 12:21:32;;;;;;;2.38;1.63;;;24.10;49.90;;;;;;4984113;28;20054;-41
2023/09/04 12:23:59;;;;;;;2.47;1.55;;;24.10;50.00;;;;;;4984690;28;20065;-42
2023/09/04 12:26:27;;;;;;;3.85;1.67;;;24.20;50.00;;;;;;4984799;28;20510;-42
2023/09/04 12:28:54;;;;;;;3.78;1.80;;;24.20;49.80;;;;;;4984188;28;20054;-42
2023/09/04 12:31:23;;;;;;;3.92;1.60;;;24.20;49.50;;;;;;4984324;28;20050;-52
2023/09/04 12:33:52;;;;;;;1.95;1.65;;;24.20;49.60;;;;;;4984067;28;20065;-46
2023/09/04 12:36:21;;;;;;;2.10;1.60;;;24.30;49.10;;;;;;4984073;28;20054;-45
2023/09/04 12:38:49;;;;;;;2.35;1.48;;;24.30;48.60;;;;;;4984371;28;20080;-50
2023/09/04 12:41:16;;;;;;;1.70;1.50;;;24.30;48.50;;;;;;4985056;28;20058;-56
2023/09/04 12:43:43;;;;;;;1.70;1.40;;;24.30;48.20;;;;;;4983359;28;20126;-58
2023/09/04 12:46:11;;;;;;;3.40;1.48;;;24.40;48.20;;;;;;4983860;28;20058;-58
2023/09/04 12:48:38;;;;;;;3.65;1.98;;;24.40;48.20;;;;;;4984847;28;20413;-55
2023/09/04 12:51:05;;;;;;;2.38;1.42;;;24.40;48.70;;;;;;4983156;28;20061;-48
2023/09/04 12:53:34;;;;;;;3.92;1.60;;;24.40;48.20;;;;;;4984611;28;20058;-56
2023/09/04 12:56:03;;;;;;;1.70;1.33;;;24.40;47.70;;;;;;4984443;28;20521;-59
2023/09/04 12:58:32;;;;;;;3.45;1.50;;;24.50;47.70;;;;;;4983386;28;20057;-58